Time;durP1;ratioP1;P1;durP2;ratioP2;P2;SDS_P1;SDS_P2;PMS_P1;PMS_P2;Temp;Humidity;BMP_temperature;BMP_pressure;BME280_temperature;BME280_humidity;BME280_pressure;Samples;Min_cycle;Max_cycle;Signal;HPM_P1;HPM_P2
2021/04/10 00:01:19;;;;;;;31.77;16.90;;;;;;;;;;5013536;28;20018;-47
2021/04/10 00:03:46;;;;;;;27.50;13.82;;;;;;;;;;5013447;28;20030;-47
2021/04/10 00:06:12;;;;;;;26.73;13.55;;;;;;;;;;5013257;28;20076;-47
2021/04/10 00:08:39;;;;;;;25.67;13.07;;;;;;;;;;5013466;28;20466;-47
2021/04/10 00:11:05;;;;;;;28.75;14.85;;;;;;;;;;5013246;28;20034;-50
2021/04/10 00:13:31;;;;;;;62.47;28.60;;;;;;;;;;5013353;28;20389;-48
2021/04/10 00:15:58;;;;;;;30.83;15.68;;;;;;;;;;5013280;28;20022;-48
2021/04/10 00:18:24;;;;;;;26.27;14.98;;;;;;;;;;5013225;28;20037;-48
2021/04/10 00:20:50;;;;;;;27.80;14.43;;;;;;;;;;5012997;28;20359;-47
2021/04/10 00:23:16;;;;;;;28.08;15.95;;;;;;;;;;5013174;28;20022;-48
2021/04/10 00:25:42;;;;;;;20.15;12.20;;;;;;;;;;5013002;28;20496;-47
2021/04/10 00:28:08;;;;;;;69.10;30.75;;;;;;;;;;5013183;28;20030;-47
2021/04/10 00:30:34;;;;;;;52.60;25.42;;;;;;;;;;5013200;28;20030;-48
2021/04/10 00:33:00;;;;;;;41.75;21.00;;;;;;;;;;5013094;28;20049;-47
2021/04/10 00:35:29;;;;;;;31.90;16.92;;;;;;;;;;5013311;28;20065;-48
2021/04/10 00:37:56;;;;;;;41.50;21.15;;;;;;;;;;5013227;28;20058;-48
2021/04/10 00:40:22;;;;;;;44.47;20.50;;;;;;;;;;5013173;28;20072;-47
2021/04/10 00:42:48;;;;;;;38.15;20.70;;;;;;;;;;5013263;28;20026;-47
2021/04/10 00:45:15;;;;;;;41.03;17.63;;;;;;;;;;5013104;28;20036;-46
2021/04/10 00:47:41;;;;;;;43.90;20.88;;;;;;;;;;5015878;28;20030;-48
2021/04/10 00:50:07;;;;;;;40.83;20.05;;;;;;;;;;5016646;28;20041;-45
2021/04/10 00:52:34;;;;;;;47.42;22.80;;;;;;;;;;5016255;28;20413;-46
2021/04/10 00:55:01;;;;;;;50.95;25.15;;;;;;;;;;5016316;28;20030;-47
2021/04/10 00:57:27;;;;;;;38.47;18.70;;;;;;;;;;5016508;28;20022;-46
2021/04/10 00:59:53;;;;;;;38.10;20.08;;;;;;;;;;5016451;28;20049;-46
2021/04/10 01:02:19;;;;;;;43.72;22.33;;;;;;;;;;5016394;28;20065;-46
2021/04/10 01:04:45;;;;;;;46.15;23.00;;;;;;;;;;5016255;28;20109;-46
2021/04/10 01:07:11;;;;;;;58.88;31.90;;;;;;;;;;5016107;28;20390;-45
2021/04/10 01:09:38;;;;;;;75.22;36.10;;;;;;;;;;5016302;28;20109;-48
2021/04/10 01:12:04;;;;;;;38.35;19.15;;;;;;;;;;5016364;28;20488;-48
2021/04/10 01:14:49;;;;;;;31.13;16.65;;;;;;;;;;5016228;28;20381;-48
2021/04/10 01:17:16;;;;;;;38.10;21.52;;;;;;;;;;5016028;28;20109;-47
2021/04/10 01:20:01;;;;;;;36.25;17.73;;;;;;;;;;5016170;28;20156;-47
2021/04/10 01:22:36;;;;;;;34.63;17.63;;;;;;;;;;5015833;28;20474;-48
2021/04/10 01:25:05;;;;;;;32.65;16.33;;;;;;;;;;5015900;28;20076;-48
2021/04/10 01:27:50;;;;;;;29.33;16.92;;;;;;;;;;5015849;28;20104;-47
2021/04/10 01:30:17;;;;;;;33.45;17.20;;;;;;;;;;5015680;28;20029;-47
2021/04/10 01:33:04;;;;;;;34.05;18.75;;;;;;;;;;5015797;28;20049;-49
2021/04/10 01:35:36;;;;;;;34.13;16.65;;;;;;;;;;5015749;28;20080;-49
2021/04/10 01:38:04;;;;;;;26.75;15.38;;;;;;;;;;5015899;28;20030;-48
2021/04/10 01:40:32;;;;;;;34.05;15.65;;;;;;;;;;5015449;28;20030;-48
2021/04/10 01:42:59;;;;;;;45.33;21.42;;;;;;;;;;5015653;28;20033;-47
2021/04/10 01:45:28;;;;;;;34.70;18.45;;;;;;;;;;5015526;28;20037;-48
2021/04/10 01:47:56;;;;;;;33.50;16.75;;;;;;;;;;5015616;28;20022;-48
2021/04/10 01:50:24;;;;;;;33.05;17.15;;;;;;;;;;5015226;28;20447;-47
2021/04/10 01:52:51;;;;;;;35.15;16.60;;;;;;;;;;5015203;28;20058;-47
2021/04/10 01:55:17;;;;;;;31.45;16.60;;;;;;;;;;5015244;28;20042;-49
2021/04/10 01:57:44;;;;;;;34.13;16.05;;;;;;;;;;5014779;28;20057;-52
2021/04/10 02:00:10;;;;;;;30.65;16.33;;;;;;;;;;5015111;28;20025;-49
2021/04/10 02:02:39;;;;;;;37.58;16.73;;;;;;;;;;5015244;28;20030;-48
2021/04/10 02:05:06;;;;;;;28.58;16.00;;;;;;;;;;5015302;28;20133;-47
2021/04/10 02:07:32;;;;;;;32.80;16.67;;;;;;;;;;5015154;28;20108;-49
2021/04/10 02:09:59;;;;;;;29.63;15.55;;;;;;;;;;5014994;28;20092;-48
2021/04/10 02:12:25;;;;;;;28.55;15.73;;;;;;;;;;5014773;28;20030;-47
2021/04/10 02:14:52;;;;;;;31.17;15.27;;;;;;;;;;5015114;28;20091;-49
2021/04/10 02:17:19;;;;;;;21.30;11.23;;;;;;;;;;5014889;28;20026;-48
2021/04/10 02:19:46;;;;;;;24.85;13.65;;;;;;;;;;5014888;28;20024;-49
2021/04/10 02:22:13;;;;;;;22.33;13.65;;;;;;;;;;5014582;28;20030;-48
2021/04/10 02:24:40;;;;;;;24.23;13.10;;;;;;;;;;5014829;28;20034;-48
2021/04/10 02:27:06;;;;;;;25.60;13.07;;;;;;;;;;5014647;28;20022;-49
2021/04/10 02:29:32;;;;;;;24.38;13.07;;;;;;;;;;5014823;28;20030;-46
2021/04/10 02:32:02;;;;;;;27.10;13.35;;;;;;;;;;5014691;28;20027;-49
2021/04/10 02:34:29;;;;;;;24.73;11.25;;;;;;;;;;5014583;28;20029;-49
2021/04/10 02:37:00;;;;;;;22.42;14.00;;;;;;;;;;5014755;28;20025;-48
2021/04/10 02:39:27;;;;;;;27.92;15.77;;;;;;;;;;5014525;28;20093;-49
2021/04/10 02:41:55;;;;;;;31.40;16.08;;;;;;;;;;4997130;28;20109;-48
2021/04/10 02:44:28;;;;;;;31.13;17.38;;;;;;;;;;5014409;28;20037;-48
2021/04/10 02:46:58;;;;;;;27.52;13.90;;;;;;;;;;5014379;28;20026;-48
2021/04/10 02:49:26;;;;;;;22.02;12.02;;;;;;;;;;5014605;28;20058;-47
2021/04/10 02:51:56;;;;;;;24.60;12.15;;;;;;;;;;5014094;28;20076;-48
2021/04/10 02:54:24;;;;;;;21.58;11.27;;;;;;;;;;5014224;28;20049;-48
2021/04/10 02:56:55;;;;;;;24.90;11.45;;;;;;;;;;5014314;28;20033;-48
2021/04/10 02:59:21;;;;;;;26.52;12.90;;;;;;;;;;5014046;28;20022;-48
2021/04/10 03:01:48;;;;;;;19.48;11.75;;;;;;;;;;5014244;28;20022;-47
2021/04/10 03:04:14;;;;;;;16.42;9.75;;;;;;;;;;5014291;28;20022;-48
2021/04/10 03:06:41;;;;;;;21.35;11.52;;;;;;;;;;5014108;28;20529;-48
2021/04/10 03:09:07;;;;;;;25.63;14.18;;;;;;;;;;5013918;28;20038;-48
2021/04/10 03:11:34;;;;;;;22.23;12.65;;;;;;;;;;5013958;28;20017;-47
2021/04/10 03:14:01;;;;;;;26.35;14.27;;;;;;;;;;5014045;28;20037;-49
2021/04/10 03:16:29;;;;;;;24.13;12.88;;;;;;;;;;5013997;28;20101;-49
2021/04/10 03:18:55;;;;;;;23.17;12.23;;;;;;;;;;5013859;28;20033;-48
2021/04/10 03:21:21;;;;;;;23.40;11.13;;;;;;;;;;5013609;28;20482;-48
2021/04/10 03:23:47;;;;;;;27.10;14.52;;;;;;;;;;5013753;28;20109;-48
2021/04/10 03:26:14;;;;;;;19.08;11.35;;;;;;;;;;5014066;28;20030;-49
2021/04/10 03:28:41;;;;;;;24.52;12.45;;;;;;;;;;5013870;28;20512;-49
2021/04/10 03:31:07;;;;;;;26.70;12.60;;;;;;;;;;5013599;28;20026;-48
2021/04/10 03:33:34;;;;;;;23.85;11.50;;;;;;;;;;5013502;28;20489;-48
2021/04/10 03:36:01;;;;;;;30.13;16.27;;;;;;;;;;5013696;28;20458;-48
2021/04/10 03:38:30;;;;;;;30.55;13.27;;;;;;;;;;5013599;28;20022;-48
2021/04/10 03:40:56;;;;;;;36.00;18.13;;;;;;;;;;5013765;28;20383;-49
2021/04/10 03:43:22;;;;;;;34.45;19.23;;;;;;;;;;5013578;28;20029;-48
2021/04/10 03:45:50;;;;;;;32.83;15.95;;;;;;;;;;5013521;28;20040;-46
2021/04/10 03:48:17;;;;;;;29.90;15.48;;;;;;;;;;5013643;28;20050;-47
2021/04/10 03:50:43;;;;;;;27.30;15.80;;;;;;;;;;5013413;28;20112;-47
2021/04/10 03:53:10;;;;;;;27.48;14.75;;;;;;;;;;5013134;28;20050;-46
2021/04/10 03:55:36;;;;;;;30.13;15.43;;;;;;;;;;5013373;28;20022;-47
2021/04/10 03:58:03;;;;;;;28.27;16.42;;;;;;;;;;5013343;28;20054;-48
2021/04/10 04:00:29;;;;;;;25.38;12.77;;;;;;;;;;5013378;28;20026;-46
2021/04/10 04:02:58;;;;;;;21.95;12.40;;;;;;;;;;5013624;28;20512;-47
2021/04/10 04:05:25;;;;;;;22.75;12.52;;;;;;;;;;5013314;28;20472;-47
2021/04/10 04:07:52;;;;;;;24.55;12.80;;;;;;;;;;5013252;28;20034;-45
2021/04/10 04:10:18;;;;;;;24.42;12.40;;;;;;;;;;5013364;28;20022;-48
2021/04/10 04:12:44;;;;;;;23.15;11.38;;;;;;;;;;5013390;28;20022;-47
2021/04/10 04:15:10;;;;;;;20.10;10.77;;;;;;;;;;5013645;28;20120;-48
2021/04/10 04:17:36;;;;;;;20.45;12.15;;;;;;;;;;5013185;28;20076;-47
2021/04/10 04:20:03;;;;;;;21.92;12.20;;;;;;;;;;5013144;28;20022;-46
2021/04/10 04:22:29;;;;;;;21.05;11.32;;;;;;;;;;5015766;28;20034;-46
2021/04/10 04:24:55;;;;;;;26.75;12.23;;;;;;;;;;5017211;28;20025;-47
2021/04/10 04:27:24;;;;;;;23.00;12.95;;;;;;;;;;5016862;28;20084;-47
2021/04/10 04:29:54;;;;;;;24.70;13.50;;;;;;;;;;5017073;28;20036;-48
2021/04/10 04:32:20;;;;;;;23.67;13.05;;;;;;;;;;4999880;28;20018;-47
2021/04/10 04:34:49;;;;;;;25.38;13.55;;;;;;;;;;5016810;28;20072;-47
2021/04/10 04:37:15;;;;;;;20.13;12.80;;;;;;;;;;5016711;28;20029;-47
2021/04/10 04:39:41;;;;;;;21.70;12.13;;;;;;;;;;5016700;28;20080;-47
2021/04/10 04:42:08;;;;;;;16.65;10.95;;;;;;;;;;5016522;28;20064;-47
2021/04/10 04:44:34;;;;;;;24.30;12.55;;;;;;;;;;5016739;28;20538;-48
2021/04/10 04:47:00;;;;;;;21.98;11.77;;;;;;;;;;5016632;28;20029;-49
2021/04/10 04:49:26;;;;;;;23.48;11.60;;;;;;;;;;5016325;28;20021;-45
2021/04/10 04:51:56;;;;;;;19.60;10.73;;;;;;;;;;5015841;28;20512;-46
2021/04/10 04:54:22;;;;;;;26.42;11.23;;;;;;;;;;5016295;28;20046;-48
2021/04/10 04:56:48;;;;;;;29.05;14.27;;;;;;;;;;5016392;28;20077;-46
2021/04/10 04:59:14;;;;;;;49.97;21.92;;;;;;;;;;5016272;28;20026;-45
2021/04/10 05:01:40;;;;;;;40.10;20.90;;;;;;;;;;5016223;28;20022;-46
2021/04/10 05:04:09;;;;;;;46.35;24.77;;;;;;;;;;5016192;28;20026;-49
2021/04/10 05:06:35;;;;;;;139.38;69.75;;;;;;;;;;5016231;28;20101;-49
2021/04/10 05:09:01;;;;;;;214.93;99.88;;;;;;;;;;5016282;28;20462;-48
2021/04/10 05:11:27;;;;;;;199.27;92.57;;;;;;;;;;5015940;28;20109;-48
2021/04/10 05:13:53;;;;;;;63.05;33.92;;;;;;;;;;5016105;28;20080;-48
2021/04/10 05:16:19;;;;;;;58.72;33.15;;;;;;;;;;5016015;28;20462;-47
2021/04/10 05:18:45;;;;;;;53.72;29.85;;;;;;;;;;5015965;28;20022;-47
2021/04/10 05:21:11;;;;;;;38.47;22.67;;;;;;;;;;5015783;28;20057;-48
2021/04/10 05:23:37;;;;;;;41.22;23.67;;;;;;;;;;5015819;28;20467;-47
2021/04/10 05:26:04;;;;;;;38.40;22.73;;;;;;;;;;5015640;28;20034;-47
2021/04/10 05:28:34;;;;;;;44.17;25.23;;;;;;;;;;5015878;28;20029;-47
2021/04/10 05:31:01;;;;;;;27.40;16.17;;;;;;;;;;5015747;28;20033;-48
2021/04/10 05:33:30;;;;;;;27.83;13.50;;;;;;;;;;5014325;28;20481;-47
2021/04/10 05:35:57;;;;;;;16.30;10.73;;;;;;;;;;5015418;28;20026;-48
2021/04/10 05:38:23;;;;;;;19.55;11.63;;;;;;;;;;5015636;28;20101;-47
2021/04/10 05:40:49;;;;;;;13.77;8.68;;;;;;;;;;5015494;28;20438;-48
2021/04/10 05:43:15;;;;;;;23.63;12.93;;;;;;;;;;5015303;28;20036;-48
2021/04/10 05:45:41;;;;;;;23.75;13.10;;;;;;;;;;5015386;28;20053;-48
2021/04/10 05:48:07;;;;;;;20.58;10.60;;;;;;;;;;5015235;28;20470;-48
2021/04/10 05:50:33;;;;;;;19.23;9.23;;;;;;;;;;5014994;28;20057;-48
2021/04/10 05:53:00;;;;;;;10.95;8.07;;;;;;;;;;5015020;28;20514;-49
2021/04/10 05:55:26;;;;;;;12.07;7.60;;;;;;;;;;5015232;28;20087;-48
2021/04/10 05:57:52;;;;;;;14.50;8.38;;;;;;;;;;5015182;28;20093;-48
2021/04/10 06:00:18;;;;;;;13.27;7.53;;;;;;;;;;5015202;28;20470;-48
2021/04/10 06:02:48;;;;;;;12.20;7.40;;;;;;;;;;5015097;28;20366;-48
2021/04/10 06:05:15;;;;;;;15.82;7.55;;;;;;;;;;5015011;28;20397;-48
2021/04/10 06:07:41;;;;;;;12.18;6.90;;;;;;;;;;5015067;28;20488;-47
2021/04/10 06:10:07;;;;;;;12.55;6.53;;;;;;;;;;5015398;28;20438;-49
2021/04/10 06:12:33;;;;;;;16.60;6.63;;;;;;;;;;5015030;28;20036;-50
2021/04/10 06:14:59;;;;;;;11.13;6.63;;;;;;;;;;5014831;28;20029;-48
2021/04/10 06:17:25;;;;;;;10.40;6.03;;;;;;;;;;5014917;28;20029;-48
2021/04/10 06:19:51;;;;;;;15.13;6.50;;;;;;;;;;5015116;28;20040;-48
2021/04/10 06:22:17;;;;;;;20.25;10.20;;;;;;;;;;5014547;28;20026;-48
2021/04/10 06:24:43;;;;;;;20.05;6.95;;;691.20;435.20;;;;;;5014855;28;20401;-49
2021/04/10 06:27:11;;;;;;;13.88;6.93;;;;;;;;;;5013249;28;20117;-49
2021/04/10 06:29:37;;;;;;;13.15;5.43;;;;;;;;;;5014676;28;20021;-49
2021/04/10 06:32:05;;;;;;;36.20;15.35;;;;;;;;;;5014668;28;20029;-49
2021/04/10 06:34:31;;;;;;;12.45;6.65;;;;;;;;;;5014465;28;20160;-49
2021/04/10 06:36:57;;;;;;;15.80;7.65;;;;;;;;;;5014497;28;20462;-49
2021/04/10 06:39:23;;;;;;;14.60;8.85;;;691.40;384.00;;;;;;5013022;28;20080;-49
2021/04/10 06:41:49;;;;;;;15.50;7.43;;;;;;;;;;5014280;28;20442;-46
2021/04/10 06:44:15;;;;;;;13.20;7.68;;;;;;;;;;5014226;28;20030;-47
2021/04/10 06:46:41;;;;;;;38.78;24.85;;;;;;;;;;5014696;28;20030;-48
2021/04/10 06:49:09;;;;;;;14.65;9.18;;;;;;;;;;5012730;28;20109;-47
2021/04/10 06:51:37;;;;;;;18.10;9.15;;;;;;;;;;5013488;28;20110;-48
2021/04/10 06:54:08;;;;;;;22.02;12.63;;;;;;;;;;5013813;28;20073;-48
2021/04/10 06:56:37;;;;;;;28.37;13.13;;;;;;;;;;5013798;28;20029;-48
2021/04/10 06:59:11;;;;;;;15.13;8.93;;;;;;;;;;5014256;28;20096;-50
2021/04/10 07:01:37;;;;;;;13.65;7.70;;;;;;;;;;5014065;28;20528;-47
2021/04/10 07:04:04;;;;;;;18.10;8.15;;;;;;;;;;5013757;28;20084;-48
2021/04/10 07:06:31;;;;;;;16.52;10.18;;;;;;;;;;5013865;28;20022;-48
2021/04/10 07:08:58;;;;;;;16.27;7.97;;;;;;;;;;5012929;28;20032;-48
2021/04/10 07:11:24;;;;;;;13.07;7.50;;;;;;;;;;5012326;28;20026;-48
2021/04/10 07:13:50;;;;;;;13.35;7.25;;;;;;;;;;5012422;28;20061;-47
2021/04/10 07:16:18;;;;;;;13.45;5.60;;;;;;;;;;5012944;28;20110;-47
2021/04/10 07:18:44;;;;;;;16.75;6.82;;;;;;;;;;5012647;28;20041;-48
2021/04/10 07:21:25;;;;;;;10.95;5.60;;;;;;;;;;5013784;28;20026;-47
2021/04/10 07:23:51;;;;;;;10.68;3.40;;;;;;;;;;5013914;28;20382;-47
2021/04/10 07:26:19;;;;;;;11.45;4.47;;;;;;;;;;5013671;28;20101;-49
2021/04/10 07:28:45;;;;;;;13.50;4.32;;;;;;;;;;5013874;28;20473;-49
2021/04/10 07:31:13;;;;;;;11.98;6.15;;;;;;;;;;5013750;28;20026;-48
2021/04/10 07:33:40;;;;;;;14.00;5.18;;;;;;;;;;5013459;28;20029;-48
2021/04/10 07:36:07;;;;;;;24.17;10.35;;;;;;;;;;5013585;28;20032;-48
2021/04/10 07:38:35;;;;;;;9.40;4.38;;;;;;;;;;5013608;28;20034;-47
2021/04/10 07:41:02;;;;;;;23.55;10.23;;;;;;;;;;4993944;28;20486;-47
2021/04/10 07:43:30;;;;;;;41.90;17.33;;;;;;;;;;4993900;28;20023;-48
2021/04/10 07:46:13;;;;;;;88.10;32.22;;;;;;;;;;4993820;28;20101;-48
2021/04/10 07:48:40;;;;;;;59.35;31.95;;;;;;;;;;4993836;28;20030;-52
2021/04/10 07:51:15;;;;;;;29.90;18.15;;;;;;;;;;4993852;28;20058;-47
2021/04/10 07:53:42;;;;;;;39.70;21.00;;;;;;;;;;4993875;28;20105;-49
2021/04/10 07:56:08;;;;;;;14.18;7.30;;;;;;;;;;4994372;28;20057;-49
2021/04/10 07:58:38;;;;;;;39.25;24.92;;;;;;;;;;4997712;28;20026;-56
2021/04/10 08:01:04;;;;;;;84.95;47.05;;;;;;;;;;4997633;28;20026;-55
2021/04/10 08:03:39;;;;;;;34.85;16.10;;;;;;;;;;4997867;28;20028;-52
2021/04/10 08:06:05;;;;;;;18.85;9.27;;;;;;;;;;4997870;28;20057;-54
2021/04/10 08:08:33;;;;;;;6.50;4.03;;;;;;;;;;4997946;28;20026;-54
2021/04/10 08:11:00;;;;;;;10.57;4.65;;;;;;;;;;5017123;28;20026;-55
2021/04/10 08:13:26;;;;;;;9.23;4.88;;;;;;;;;;5016887;28;20050;-54
2021/04/10 08:16:11;;;;;;;13.35;5.40;;;;;;;;;;5017007;28;20034;-54
2021/04/10 08:18:51;;;;;;;11.40;4.80;;;;;;;;;;5017379;28;20033;-53
2021/04/10 08:21:37;;;;;;;14.90;5.95;;;;;;;;;;5017331;28;20493;-55
2021/04/10 08:24:05;;;;;;;10.27;3.60;;;;;;;;;;4999097;28;20422;-54
2021/04/10 08:26:31;;;;;;;10.98;3.72;;;;;;;;;;5016765;28;20448;-53
2021/04/10 08:28:57;;;;;;;8.73;3.33;;;;;;;;;;5016649;28;20045;-53
2021/04/10 08:31:23;;;;;;;10.10;2.80;;;;;;;;;;5016813;28;20033;-54
2021/04/10 08:33:49;;;;;;;9.05;2.72;;;;;;;;;;5016603;28;20033;-53
2021/04/10 08:36:16;;;;;;;8.70;2.60;;;;;;;;;;5016690;28;20125;-55
2021/04/10 08:38:43;;;;;;;13.35;3.10;;;;;;;;;;5016641;28;20073;-58
2021/04/10 08:41:10;;;;;;;6.70;2.65;;;;;;;;;;5016737;28;20500;-55
2021/04/10 08:43:40;;;;;;;14.85;3.42;;;;;;;;;;5016440;28;20025;-57
2021/04/10 08:46:11;;;;;;;6.25;2.28;;;;;;;;;;5016651;28;20034;-56
2021/04/10 08:48:38;;;;;;;16.85;3.08;;;;;;;;;;5017004;28;20033;-56
2021/04/10 08:51:06;;;;;;;9.75;2.60;;;;;;;;;;5016598;28;20025;-57
2021/04/10 08:53:34;;;;;;;7.00;2.20;;;;;;;;;;5015672;28;20044;-55
2021/04/10 08:56:05;;;;;;;11.18;2.90;;;;;;;;;;5015530;28;20033;-56
2021/04/10 08:58:35;;;;;;;9.13;2.83;;;;;;;;;;5016497;28;20429;-55
2021/04/10 09:01:02;;;;;;;13.45;3.08;;;;;;;;;;5016287;28;20061;-57
2021/04/10 09:04:00;;;;;;;6.72;2.83;;;;;;;;;;5015771;28;20101;-55
2021/04/10 09:06:29;;;;;;;9.05;2.65;;;;;;;;;;4955848;29;20059;-56
2021/04/10 09:09:11;;;;;;;6.32;2.38;;;;;;;;;;4955701;28;20070;-56
2021/04/10 09:11:37;;;;;;;13.15;2.38;;;;;;;;;;4955701;29;20067;-56
2021/04/10 09:14:04;;;;;;;7.50;1.90;;;;;;;;;;4955474;29;20554;-57
2021/04/10 09:16:34;;;;;;;4.93;1.48;;;;;;;;;;4955790;29;20039;-55
2021/04/10 09:19:05;;;;;;;4.88;1.85;;;;;;;;;;4955854;29;20034;-57
2021/04/10 09:21:42;;;;;;;5.78;2.35;;;;;;;;;;4955166;29;20043;-54
2021/04/10 09:24:25;;;;;;;5.05;1.92;;;;;;;;;;4955634;29;20031;-52
2021/04/10 09:26:52;;;;;;;11.20;2.40;;;;;;;;;;4955365;29;20031;-55
2021/04/10 09:29:18;;;;;;;12.20;2.80;;;;;;;;;;4955520;29;20118;-54
2021/04/10 09:31:47;;;;;;;9.35;1.55;;;;;;;;;;4954856;29;20483;-54
2021/04/10 09:34:31;;;;;;;4.05;1.60;;;;;;;;;;4955164;29;20036;-54
2021/04/10 09:36:57;;;;;;;8.02;2.13;;;;;;;;;;4955379;29;20039;-49
2021/04/10 09:39:42;;;;;;;84.43;38.95;;;;;;;;;;4955356;29;20507;-49
2021/04/10 09:42:08;;;;;;;16.15;9.98;;;;;;;;;;4988388;28;20034;-49
2021/04/10 09:44:54;;;;;;;14.55;8.05;;;;;;;;;;5015427;28;20026;-47
2021/04/10 09:47:20;;;;;;;22.77;9.77;;;;;;;;;;4997385;28;20038;-48
2021/04/10 09:49:46;;;;;;;6.85;3.83;;;;;;;;;;5015385;28;20121;-49
2021/04/10 09:52:15;;;;;;;9.60;5.30;;;;;;;;;;5014806;28;20497;-49
2021/04/10 09:54:42;;;;;;;23.23;12.90;;;;;;;;;;5015200;28;20096;-50
2021/04/10 09:57:17;;;;;;;51.28;26.38;;;;;;;;;;5015177;28;20047;-51
2021/04/10 09:59:45;;;;;;;31.42;16.48;;;;;;;;;;5015089;28;20112;-50
2021/04/10 10:02:11;;;;;;;62.00;37.83;;;;;;;;;;5014217;28;20024;-52
2021/04/10 10:04:40;;;;;;;21.40;10.65;;;;;;;;;;4997593;28;21315;-50
2021/04/10 10:07:06;;;;;;;11.80;5.57;;;;;;;;;;4997999;28;20033;-49
2021/04/10 10:09:32;;;;;;;23.15;10.77;;;;;;;;;;4996465;28;20029;-56
2021/04/10 10:11:59;;;;;;;22.88;8.98;;;;;;;;;;4997952;28;20125;-49
2021/04/10 10:14:25;;;;;;;4.43;2.08;;;;;;;;;;4997882;28;20517;-50
2021/04/10 10:16:53;;;;;;;7.30;3.15;;;;;;;;;;4998167;28;20018;-49
2021/04/10 10:19:20;;;;;;;15.40;6.45;;;;;;;;;;4996171;28;20033;-51
2021/04/10 10:21:46;;;;;;;9.75;3.80;;;;;;;;;;4995974;28;20630;-56
2021/04/10 10:24:18;;;;;;;6.35;3.95;;;;;;;;;;4996919;28;20108;-50
2021/04/10 10:26:45;;;;;;;18.70;8.55;;;;;;;;;;4978857;28;20044;-51
2021/04/10 10:29:15;;;;;;;15.15;6.10;;;;;;;;;;4996706;28;20029;-53
2021/04/10 10:31:43;;;;;;;15.45;5.22;;;;;;;;;;4996496;28;20025;-53
2021/04/10 10:34:11;;;;;;;19.55;10.38;;;;;;;;;;4996366;28;20603;-53
2021/04/10 10:36:38;;;;;;;8.85;3.83;;;;;;;;;;4996417;28;20033;-51
2021/04/10 10:39:06;;;;;;;17.88;8.27;;;;;;;;;;4996850;28;20014;-49
2021/04/10 10:41:41;;;;;;;12.02;5.45;;;;;;;;;;4996868;28;20034;-50
2021/04/10 10:44:07;;;;;;;29.80;13.00;;;;;;;;;;4995885;28;20060;-51
2021/04/10 10:46:33;;;;;;;18.73;10.18;;;;;;;;;;4996915;28;20034;-51
2021/04/10 10:48:59;;;;;;;28.65;16.90;;;;;;;;;;4996304;28;20344;-54
2021/04/10 10:51:27;;;;;;;20.60;7.90;;;;;;;;;;4996136;28;20049;-51
2021/04/10 10:53:55;;;;;;;38.97;20.60;;;;;;;;;;4996073;28;20034;-51
2021/04/10 10:56:30;;;;;;;15.63;7.10;;;;;;;;;;4996564;28;20035;-57
2021/04/10 10:58:58;;;;;;;25.15;13.60;;;;;;;;;;4996145;28;20022;-52
2021/04/10 11:01:34;;;;;;;30.17;17.40;;;;;;;;;;4996222;28;20034;-50
2021/04/10 11:04:06;;;;;;;28.98;14.60;;;;;;;;;;4995734;28;20026;-54
2021/04/10 11:06:41;;;;;;;35.72;19.10;;;;;;;;;;4996410;28;20101;-53
2021/04/10 11:09:10;;;;;;;26.15;12.98;;;;;;;;;;4995557;28;20076;-54
2021/04/10 11:11:37;;;;;;;20.88;13.02;;;;;;;;;;4996042;28;20104;-52
2021/04/10 11:14:04;;;;;;;43.67;23.90;;;;;;;;;;4995692;28;20034;-50
2021/04/10 11:16:30;;;;;;;33.55;19.80;;;;;;;;;;4978199;28;20207;-53
2021/04/10 11:19:00;;;;;;;16.15;8.02;;;;;;;;;;4996086;28;20454;-57
2021/04/10 11:21:31;;;;;;;15.82;7.88;;;;;;;;;;4995684;28;20029;-52
2021/04/10 11:23:57;;;;;;;38.15;25.65;;;;;;;;;;4978819;28;20026;-50
2021/04/10 11:26:38;;;;;;;19.30;10.27;;;;;;;;;;4995731;28;20036;-51
2021/04/10 11:29:13;;;;;;;21.05;13.00;;;;;;;;;;4995062;28;20478;-49
2021/04/10 11:31:39;;;;;;;22.38;13.07;;;;;;;;;;4994015;28;20026;-51
2021/04/10 11:34:24;;;;;;;21.80;11.98;;;;;;;;;;4978478;28;20026;-53
2021/04/10 11:36:51;;;;;;;13.57;6.75;;;;;;;;;;4995656;28;20028;-52
2021/04/10 11:39:17;;;;;;;37.47;22.25;;;;;;;;;;4995888;28;20052;-52
2021/04/10 11:41:44;;;;;;;12.00;6.40;;;;;;;;;;4995761;28;20018;-54
2021/04/10 11:44:10;;;;;;;28.33;11.10;;;;;;;;;;4995346;28;20042;-54
2021/04/10 11:46:36;;;;;;;19.10;10.57;;;;;;;;;;4995746;28;20073;-53
2021/04/10 11:49:02;;;;;;;14.38;6.93;;;;;;;;;;4995936;28;20022;-52
2021/04/10 11:51:29;;;;;;;25.58;13.30;;;;;;;;;;4995425;28;20066;-53
2021/04/10 11:53:55;;;;;;;32.28;15.32;;;;;;;;;;4995414;28;20030;-53
2021/04/10 11:56:28;;;;;;;30.23;11.77;;;;;;;;;;4995302;28;20784;-50
2021/04/10 11:59:04;;;;;;;14.48;8.00;;;;;;;;;;4995534;28;20388;-51
2021/04/10 12:01:30;;;;;;;18.50;9.27;;;;;;;;;;4995901;28;20159;-54
2021/04/10 12:03:59;;;;;;;14.10;8.40;;;;;;;;;;4996512;28;20037;-54
2021/04/10 12:06:28;;;;;;;6.72;2.72;;;;;;;;;;5002742;28;20036;-50
2021/04/10 12:08:54;;;;;;;11.38;4.97;;;;;;;;;;5013212;28;20528;-50
2021/04/10 12:11:23;;;;;;;15.68;8.40;;;;;;;;;;5013308;28;20048;-50
2021/04/10 12:13:50;;;;;;;27.40;6.88;;;;;;;;;;5013348;28;20034;-51
2021/04/10 12:16:16;;;;;;;15.20;7.38;;;;;;;;;;5013229;28;20117;-48
2021/04/10 12:18:42;;;;;;;13.75;4.90;;;;;;;;;;5013380;28;20018;-49
2021/04/10 12:21:08;;;;;;;23.35;12.07;;;;;;;;;;5013011;28;20462;-50
2021/04/10 12:23:34;;;;;;;12.15;7.07;;;;;;;;;;5013161;28;20030;-51
2021/04/10 12:26:02;;;;;;;10.57;3.83;;;;;;;;;;5013294;28;20026;-55
2021/04/10 12:28:29;;;;;;;12.88;5.95;;;;;;;;;;5013073;28;20113;-53
2021/04/10 12:30:55;;;;;;;25.80;12.10;;;;;;;;;;5013292;28;20073;-54
2021/04/10 12:33:22;;;;;;;27.30;14.88;;;;;;;;;;4995049;28;20040;-52
2021/04/10 12:35:49;;;;;;;16.35;8.65;;;;;;;;;;5013009;28;20394;-47
2021/04/10 12:38:15;;;;;;;49.95;29.70;;;;;;;;;;5013511;28;20025;-51
2021/04/10 12:40:42;;;;;;;31.75;15.70;;;;;;;;;;5013002;28;20108;-46
2021/04/10 12:43:09;;;;;;;66.80;39.10;;;;;;;;;;4997051;28;20508;-50
2021/04/10 12:45:35;;;;;;;19.02;9.48;;;;;;;;;;5016645;28;20097;-54
2021/04/10 12:48:01;;;;;;;19.50;11.80;;;;;;;;;;5016251;28;20464;-54
2021/04/10 12:50:27;;;;;;;7.13;2.00;;;;;;;;;;5016476;28;20477;-55
2021/04/10 12:52:55;;;;;;;12.07;5.65;;;;;;;;;;5016259;28;20111;-56
2021/04/10 12:55:25;;;;;;;18.63;5.32;;;;;;;;;;5016485;28;20042;-54
2021/04/10 12:57:51;;;;;;;4.93;2.63;;;;;;;;;;5016401;28;20037;-53
2021/04/10 13:00:17;;;;;;;49.22;26.15;;;;;;;;;;4998964;28;20034;-52
2021/04/10 13:02:44;;;;;;;43.67;23.27;;;;;;;;;;4998937;28;20034;-55
2021/04/10 13:05:10;;;;;;;95.20;65.13;;;;;;;;;;5016325;28;20029;-53
2021/04/10 13:07:37;;;;;;;23.33;12.90;;;;;;;;;;5016280;28;20033;-50
2021/04/10 13:10:04;;;;;;;4.88;2.00;;;;;;;;;;5015589;28;20032;-55
2021/04/10 13:12:30;;;;;;;22.30;10.43;;;;;;;;;;5015840;28;20022;-57
2021/04/10 13:14:57;;;;;;;9.82;4.03;;;;;;;;;;5015990;28;20038;-54
2021/04/10 13:17:23;;;;;;;12.85;7.00;;;;;;;;;;5016220;28;20037;-57
2021/04/10 13:19:49;;;;;;;18.35;4.97;;;;;;;;;;5016281;28;20030;-55
2021/04/10 13:22:15;;;;;;;12.95;5.57;;;;;;;;;;5015967;28;20053;-58
2021/04/10 13:24:42;;;;;;;20.20;5.28;;;;;;;;;;5015921;28;20026;-54
2021/04/10 13:27:09;;;;;;;16.70;7.45;;;;;;;;;;5015804;28;20529;-51
2021/04/10 13:29:35;;;;;;;14.60;5.45;;;;;;;;;;5015843;28;20026;-51
2021/04/10 13:32:01;;;;;;;11.90;6.82;;;;;;;;;;5015858;28;20109;-56
2021/04/10 13:34:27;;;;;;;22.77;12.48;;;;;;;;;;5015638;28;20164;-57
2021/04/10 13:36:54;;;;;;;35.13;17.05;;;;;;;;;;5015596;28;20061;-52
2021/04/10 13:39:21;;;;;;;12.00;4.18;;;;;;;;;;5015555;28;20467;-51
2021/04/10 13:41:48;;;;;;;33.78;14.00;;;;;;;;;;5015776;28;20030;-49
2021/04/10 13:44:14;;;;;;;39.30;18.55;;;;;;;;;;5015504;28;20397;-51
2021/04/10 13:46:41;;;;;;;53.95;23.05;;;;;;;;;;5015239;28;20144;-49
2021/04/10 13:49:07;;;;;;;132.50;82.82;;;;;;;;;;5015243;28;20030;-49
2021/04/10 13:51:33;;;;;;;60.60;37.20;;;;;;;;;;5015190;28;20077;-49
2021/04/10 13:54:00;;;;;;;54.78;30.13;;;;;;;;;;5014271;28;20109;-49
2021/04/10 13:56:27;;;;;;;12.40;5.72;;;;;;;;;;5015183;28;20036;-53
2021/04/10 13:58:54;;;;;;;13.95;8.65;;;;;;;;;;5015175;28;20047;-52
2021/04/10 14:01:20;;;;;;;12.02;5.70;;;;;;;;;;5015230;28;20113;-52
2021/04/10 14:03:46;;;;;;;23.88;13.30;;;;;;;;;;5014945;28;20021;-51
2021/04/10 14:06:14;;;;;;;20.30;11.73;;;;;;;;;;5014979;28;20033;-51
2021/04/10 14:08:41;;;;;;;22.63;12.18;;;;;;;;;;5014940;28;20049;-52
2021/04/10 14:11:07;;;;;;;35.70;24.65;;;;;;;;;;5014934;28;20026;-52
2021/04/10 14:13:34;;;;;;;23.88;10.38;;;;;;;;;;4997383;28;20033;-52
2021/04/10 14:16:00;;;;;;;52.10;26.38;;;;;;;;;;5014833;28;20387;-51
2021/04/10 14:18:28;;;;;;;31.23;19.33;;;;;;;;;;5015191;28;20026;-51
2021/04/10 14:20:56;;;;;;;47.30;27.63;;;;;;;;;;5014405;28;20069;-51
2021/04/10 14:23:23;;;;;;;40.78;24.40;;;;;;;;;;5014682;28;20095;-51
2021/04/10 14:25:50;;;;;;;20.13;10.73;;;;;;;;;;5014657;28;20509;-53